KEWR/EWR METAR and TAF weather

Enter ICAO airport designator
Station Type Date Time Source
KEWR METAR 2020/04/07 15:51 UTC NOAA

KEWR 071551Z 00000KT 10SM SCT060 SCT110 BKN250 16/M01 A2994 RMK AO2 SLP136 T01611006


Station Type Date Time Source
KEWR Decoded METAR 2020/04/07 15:51 UTC NOAA

NEWARK INTERNATIONAL AIRPORT, NJ, United States (KEWR) 40-41N 74-10W 7M
Apr 07, 2020 - 11:51 AM EDT / 2020.04.07 1551 UTC
Wind: Calm:0
Visibility: 10 mile(s):0
Sky conditions: mostly cloudy
Temperature: 61.0 F (16.1 C)
Dew Point: 30.9 F (-0.6 C)
Relative Humidity: 31%
Pressure (altimeter): 29.94 in. Hg (1013 hPa)
ob: KEWR 071551Z 00000KT 10SM SCT060 SCT110 BKN250 16/M01 A2994 RMK AO2 SLP136 T01611006
cycle: 16

Station Type Date Time Source
KEWR TAF 2020/04/07 16:36 UTC NOAA

TAF
AMD KEWR 071535Z 0716/0818 VRB05KT P6SM BKN100
FM071900 22007KT P6SM BKN100
FM072100 15009KT P6SM BKN100
FM080200 19006KT P6SM BKN050 PROB30 0804/0808 5SM -SHRA OVC035
FM080800 22006KT 5SM -SHRA OVC030
FM081000 34005KT 4SM BR SCT003 OVC009
FM081200 01006KT 4SM BR OVC015
FM081600 02005KT P6SM OVC025

Example: see airport list